DLH420 LFMN-EDDM
Flight info
| Callsign | DLH420 |
|---|---|
| Flight time | N/A |
| Altitude | 32000 |
| Route | BASIP8A BASIP DCT ANAKI DCT TAGIP DCT GUNGO DCT IVKAL T102 NINUR T101 BETOS BETOS1A |
| Aircraft | A359/H-SDE2E3GHIJ3J4J5LM1ORWXY/LB1D1 |
Departure
| Time | 2026-05-01 09:42 |
|---|---|
| Airport | Nice-Côte d'Azur Airport (LFMN) |
Arrival
| Time | N/A |
|---|---|
| Airport | Munich Airport (EDDM) |
| Time | Latitude | Longitude | Altitude | Speed | Heading |
|---|---|---|---|---|---|
| 2026-05-01 09:15 | 43.65794 | 7.20540 | 28 ft | 0 kts | 339° |
| 2026-05-01 09:25 | 43.65795 | 7.20540 | 28 ft | 0 kts | 339° |
| 2026-05-01 09:30 | 43.65784 | 7.20546 | 28 ft | 0 kts | 339° |
| 2026-05-01 09:31 | 43.65770 | 7.20553 | 28 ft | 1 kts | 339° |
| 2026-05-01 09:32 | 43.65761 | 7.20558 | 28 ft | 1 kts | 339° |
| 2026-05-01 09:32 | 43.65742 | 7.20573 | 24 ft | 2 kts | 301° |
| 2026-05-01 09:32 | 43.65736 | 7.20589 | 26 ft | 2 kts | 271° |
| 2026-05-01 09:33 | 43.65736 | 7.20603 | 27 ft | 0 kts | 249° |
| 2026-05-01 09:37 | 43.65732 | 7.20593 | 26 ft | 6 kts | 242° |
| 2026-05-01 09:38 | 43.65597 | 7.20416 | 28 ft | 18 kts | 223° |
| 2026-05-01 09:38 | 43.65522 | 7.20309 | 28 ft | 13 kts | 226° |
| 2026-05-01 09:38 | 43.65449 | 7.20208 | 28 ft | 16 kts | 217° |
| 2026-05-01 09:39 | 43.65281 | 7.20297 | 28 ft | 0 kts | 136° |
| 2026-05-01 09:40 | 43.65222 | 7.20382 | 28 ft | 14 kts | 118° |
| 2026-05-01 09:40 | 43.65246 | 7.20491 | 27 ft | 13 kts | 52° |
| 2026-05-01 09:41 | 43.65266 | 7.20519 | 28 ft | 0 kts | 45° |
| 2026-05-01 09:41 | 43.65278 | 7.20537 | 28 ft | 22 kts | 45° |
| 2026-05-01 09:41 | 43.65609 | 7.20998 | 30 ft | 110 kts | 44° |
| 2026-05-01 09:42 | 43.66307 | 7.21963 | 333 ft | 153 kts | 49° |
| 2026-05-01 09:42 | 43.67167 | 7.22952 | 1194 ft | 167 kts | 39° |
| 2026-05-01 09:42 | 43.68171 | 7.25800 | 2395 ft | 193 kts | 110° |
| 2026-05-01 09:43 | 43.65840 | 7.27575 | 3800 ft | 213 kts | 172° |
| 2026-05-01 09:43 | 43.64369 | 7.28011 | 4488 ft | 220 kts | 159° |